KPEQ

Pecos Municipal Airport

Pecos, Texas, USA
METAR KPEQ 230955Z AUTO 05006KT 10SM OVC003 12/12 A3013 RMK AO2 T01230116
Observed Flight Rules
Oct-23 @ 09:55 UTC (20 minutes ago) Instrument Flight Rules
Wind Visibility Clouds
50° at 6 knots 10 miles
  • Overcast at 300' AGL
Temperatures Readings
Current 12°C / 54°F
Dewpoint 12°C / 54°F
Humidity 100%
Altimeter 30.13" Hg
Pressure 1020 hPa
Elevation 797
METAR KPEQ 230955Z AUTO 05006KT 10SM OVC003 12/12 A3013 RMK AO2 T01230116
Observed Flight Rules
Oct-23 @ 09:55 UTC
(20 minutes ago)
LIFR
Wind Visibility
50° at 6 knots 10 miles
Clouds
  • Overcast at 300' AGL
Temperature Dewpoint
12°C / 54°F 12°C / 54°F
Humidity Altimeter Pressure
100% 30.13" Hg 1020 hPa